sensor_id;sensor_type;location;lat;lon;timestamp;temperature;humidity
20885;DHT22;10602;48.000;9.654;2022-08-01T00:02:00;17.30;99.90
20885;DHT22;10602;48.000;9.654;2022-08-01T00:04:27;17.30;99.90
20885;DHT22;10602;48.000;9.654;2022-08-01T00:06:55;17.20;99.90
20885;DHT22;10602;48.000;9.654;2022-08-01T00:09:22;17.20;99.90
20885;DHT22;10602;48.000;9.654;2022-08-01T00:11:50;17.20;99.90
20885;DHT22;10602;48.000;9.654;2022-08-01T00:14:18;17.10;99.90
20885;DHT22;10602;48.000;9.654;2022-08-01T00:16:45;17.10;99.90
20885;DHT22;10602;48.000;9.654;2022-08-01T00:19:13;17.00;99.90
20885;DHT22;10602;48.000;9.654;2022-08-01T00:21:40;17.00;99.90
20885;DHT22;10602;48.000;9.654;2022-08-01T00:24:08;16.90;99.90
20885;DHT22;10602;48.000;9.654;2022-08-01T00:26:36;16.90;99.90
20885;DHT22;10602;48.000;9.654;2022-08-01T00:29:03;16.80;99.90
20885;DHT22;10602;48.000;9.654;2022-08-01T00:31:30;16.70;99.90
20885;DHT22;10602;48.000;9.654;2022-08-01T00:33:58;16.70;99.90
20885;DHT22;10602;48.000;9.654;2022-08-01T00:36:25;16.70;99.90
20885;DHT22;10602;48.000;9.654;2022-08-01T00:38:53;16.70;99.90
20885;DHT22;10602;48.000;9.654;2022-08-01T00:41:21;16.60;99.90
20885;DHT22;10602;48.000;9.654;2022-08-01T00:43:48;16.60;99.90
20885;DHT22;10602;48.000;9.654;2022-08-01T00:46:16;16.60;99.90
20885;DHT22;10602;48.000;9.654;2022-08-01T00:48:43;16.60;99.90
20885;DHT22;10602;48.000;9.654;2022-08-01T00:51:12;16.50;99.90
20885;DHT22;10602;48.000;9.654;2022-08-01T00:53:40;16.50;99.90
20885;DHT22;10602;48.000;9.654;2022-08-01T00:56:07;16.50;99.90
20885;DHT22;10602;48.000;9.654;2022-08-01T00:58:36;16.40;99.90
20885;DHT22;10602;48.000;9.654;2022-08-01T01:01:04;16.40;99.90
20885;DHT22;10602;48.000;9.654;2022-08-01T01:03:31;16.40;99.90
20885;DHT22;10602;48.000;9.654;2022-08-01T01:06:06;16.40;99.90
20885;DHT22;10602;48.000;9.654;2022-08-01T01:08:34;16.50;99.90
20885;DHT22;10602;48.000;9.654;2022-08-01T01:11:13;16.40;99.90
20885;DHT22;10602;48.000;9.654;2022-08-01T01:13:43;16.40;99.90
20885;DHT22;10602;48.000;9.654;2022-08-01T01:16:13;16.40;99.90
20885;DHT22;10602;48.000;9.654;2022-08-01T01:18:46;16.40;99.90
20885;DHT22;10602;48.000;9.654;2022-08-01T01:29:21;16.20;99.90
20885;DHT22;10602;48.000;9.654;2022-08-01T01:34:40;16.20;99.90
20885;DHT22;10602;48.000;9.654;2022-08-01T01:37:14;16.10;99.90
20885;DHT22;10602;48.000;9.654;2022-08-01T01:39:42;16.10;99.90
20885;DHT22;10602;48.000;9.654;2022-08-01T01:42:11;16.10;99.90
20885;DHT22;10602;48.000;9.654;2022-08-01T01:44:40;16.10;99.90
20885;DHT22;10602;48.000;9.654;2022-08-01T01:47:09;16.10;99.90
20885;DHT22;10602;48.000;9.654;2022-08-01T01:49:37;16.10;99.90
20885;DHT22;10602;48.000;9.654;2022-08-01T01:52:07;16.10;99.90
20885;DHT22;10602;48.000;9.654;2022-08-01T01:54:39;16.10;99.90
20885;DHT22;10602;48.000;9.654;2022-08-01T01:57:08;16.00;99.90
20885;DHT22;10602;48.000;9.654;2022-08-01T01:59:37;16.00;99.90
20885;DHT22;10602;48.000;9.654;2022-08-01T02:02:06;16.00;99.90
20885;DHT22;10602;48.000;9.654;2022-08-01T02:04:36;16.00;99.90
20885;DHT22;10602;48.000;9.654;2022-08-01T02:07:06;15.90;99.90
20885;DHT22;10602;48.000;9.654;2022-08-01T02:09:35;15.90;99.90
20885;DHT22;10602;48.000;9.654;2022-08-01T02:12:05;15.80;99.90
20885;DHT22;10602;48.000;9.654;2022-08-01T02:14:33;15.80;99.90
20885;DHT22;10602;48.000;9.654;2022-08-01T02:17:06;15.70;99.90
20885;DHT22;10602;48.000;9.654;2022-08-01T02:19:35;15.60;99.90
20885;DHT22;10602;48.000;9.654;2022-08-01T02:22:09;15.70;99.90
20885;DHT22;10602;48.000;9.654;2022-08-01T02:24:52;15.60;99.90
20885;DHT22;10602;48.000;9.654;2022-08-01T02:27:27;15.60;99.90
20885;DHT22;10602;48.000;9.654;2022-08-01T02:32:31;15.50;99.90
20885;DHT22;10602;48.000;9.654;2022-08-01T02:35:00;15.50;99.90
20885;DHT22;10602;48.000;9.654;2022-08-01T02:37:31;15.50;99.90
20885;DHT22;10602;48.000;9.654;2022-08-01T02:40:00;15.40;99.90
20885;DHT22;10602;48.000;9.654;2022-08-01T02:42:30;15.40;99.90
20885;DHT22;10602;48.000;9.654;2022-08-01T02:44:59;15.40;99.90
20885;DHT22;10602;48.000;9.654;2022-08-01T02:47:29;15.30;99.90
20885;DHT22;10602;48.000;9.654;2022-08-01T02:49:59;15.40;99.90
20885;DHT22;10602;48.000;9.654;2022-08-01T02:52:29;15.30;99.90
20885;DHT22;10602;48.000;9.654;2022-08-01T02:54:58;15.30;99.90
20885;DHT22;10602;48.000;9.654;2022-08-01T02:57:28;15.30;99.90
20885;DHT22;10602;48.000;9.654;2022-08-01T02:59:59;15.30;99.90
20885;DHT22;10602;48.000;9.654;2022-08-01T03:02:28;15.20;99.90
20885;DHT22;10602;48.000;9.654;2022-08-01T03:04:57;15.20;99.90
20885;DHT22;10602;48.000;9.654;2022-08-01T03:07:26;15.20;99.90
20885;DHT22;10602;48.000;9.654;2022-08-01T03:09:56;15.20;99.90
20885;DHT22;10602;48.000;9.654;2022-08-01T03:12:27;15.20;99.90
20885;DHT22;10602;48.000;9.654;2022-08-01T03:14:57;15.20;99.90
20885;DHT22;10602;48.000;9.654;2022-08-01T03:17:28;15.20;99.90
20885;DHT22;10602;48.000;9.654;2022-08-01T03:20:01;15.20;99.90
20885;DHT22;10602;48.000;9.654;2022-08-01T03:22:30;15.10;99.90
20885;DHT22;10602;48.000;9.654;2022-08-01T03:25:00;15.10;99.90
20885;DHT22;10602;48.000;9.654;2022-08-01T03:27:29;15.10;99.90
20885;DHT22;10602;48.000;9.654;2022-08-01T03:29:58;15.00;99.90
20885;DHT22;10602;48.000;9.654;2022-08-01T03:32:27;15.00;99.90
20885;DHT22;10602;48.000;9.654;2022-08-01T03:34:56;14.90;99.90
20885;DHT22;10602;48.000;9.654;2022-08-01T03:37:26;14.90;99.90
20885;DHT22;10602;48.000;9.654;2022-08-01T03:40:04;14.90;99.90
20885;DHT22;10602;48.000;9.654;2022-08-01T03:42:49;14.90;99.90
20885;DHT22;10602;48.000;9.654;2022-08-01T03:45:21;14.90;99.90
20885;DHT22;10602;48.000;9.654;2022-08-01T03:47:52;15.00;99.90
20885;DHT22;10602;48.000;9.654;2022-08-01T03:50:21;15.00;99.90
20885;DHT22;10602;48.000;9.654;2022-08-01T03:52:50;14.90;99.90
20885;DHT22;10602;48.000;9.654;2022-08-01T03:55:19;14.90;99.90
20885;DHT22;10602;48.000;9.654;2022-08-01T03:57:48;14.90;99.90
20885;DHT22;10602;48.000;9.654;2022-08-01T04:00:17;14.90;99.90
20885;DHT22;10602;48.000;9.654;2022-08-01T04:02:48;14.80;99.90
20885;DHT22;10602;48.000;9.654;2022-08-01T04:05:17;14.80;99.90
20885;DHT22;10602;48.000;9.654;2022-08-01T04:07:49;14.80;99.90
20885;DHT22;10602;48.000;9.654;2022-08-01T04:10:19;14.80;99.90
20885;DHT22;10602;48.000;9.654;2022-08-01T04:12:46;14.80;99.90
20885;DHT22;10602;48.000;9.654;2022-08-01T04:15:14;14.70;99.90
20885;DHT22;10602;48.000;9.654;2022-08-01T04:17:41;14.80;99.90
20885;DHT22;10602;48.000;9.654;2022-08-01T04:20:09;14.80;99.90
20885;DHT22;10602;48.000;9.654;2022-08-01T04:22:37;14.80;99.90
20885;DHT22;10602;48.000;9.654;2022-08-01T04:25:12;14.90;99.90
20885;DHT22;10602;48.000;9.654;2022-08-01T04:27:38;14.90;99.90
20885;DHT22;10602;48.000;9.654;2022-08-01T04:30:07;14.90;99.90
20885;DHT22;10602;48.000;9.654;2022-08-01T04:32:37;15.00;99.90
20885;DHT22;10602;48.000;9.654;2022-08-01T04:35:07;15.00;99.90
20885;DHT22;10602;48.000;9.654;2022-08-01T04:37:36;15.10;99.90
20885;DHT22;10602;48.000;9.654;2022-08-01T04:40:06;15.20;99.90
20885;DHT22;10602;48.000;9.654;2022-08-01T04:42:34;15.30;99.90
20885;DHT22;10602;48.000;9.654;2022-08-01T04:45:02;15.40;99.90
20885;DHT22;10602;48.000;9.654;2022-08-01T04:47:30;15.50;99.90
20885;DHT22;10602;48.000;9.654;2022-08-01T04:49:59;15.60;99.90
20885;DHT22;10602;48.000;9.654;2022-08-01T04:52:34;15.70;99.90
20885;DHT22;10602;48.000;9.654;2022-08-01T04:55:02;15.80;99.90
20885;DHT22;10602;48.000;9.654;2022-08-01T04:57:30;16.00;99.90
20885;DHT22;10602;48.000;9.654;2022-08-01T04:59:57;16.10;99.90
20885;DHT22;10602;48.000;9.654;2022-08-01T05:02:25;16.20;99.90
20885;DHT22;10602;48.000;9.654;2022-08-01T05:04:54;16.40;99.90
20885;DHT22;10602;48.000;9.654;2022-08-01T05:07:22;16.50;99.90
20885;DHT22;10602;48.000;9.654;2022-08-01T05:09:49;16.70;99.90
20885;DHT22;10602;48.000;9.654;2022-08-01T05:12:17;16.80;99.90
20885;DHT22;10602;48.000;9.654;2022-08-01T05:14:49;17.00;99.90
20885;DHT22;10602;48.000;9.654;2022-08-01T05:17:17;17.20;99.90
20885;DHT22;10602;48.000;9.654;2022-08-01T05:19:44;17.30;99.90
20885;DHT22;10602;48.000;9.654;2022-08-01T05:22:12;17.40;99.90
20885;DHT22;10602;48.000;9.654;2022-08-01T05:24:40;17.60;99.90
20885;DHT22;10602;48.000;9.654;2022-08-01T05:27:09;17.70;99.90
20885;DHT22;10602;48.000;9.654;2022-08-01T05:29:36;17.90;99.90
20885;DHT22;10602;48.000;9.654;2022-08-01T05:32:04;18.10;99.90
20885;DHT22;10602;48.000;9.654;2022-08-01T05:34:31;18.30;99.90
20885;DHT22;10602;48.000;9.654;2022-08-01T05:36:59;18.40;99.90
20885;DHT22;10602;48.000;9.654;2022-08-01T05:39:26;18.70;99.90
20885;DHT22;10602;48.000;9.654;2022-08-01T05:41:54;18.90;99.90
20885;DHT22;10602;48.000;9.654;2022-08-01T05:44:22;19.10;99.90
20885;DHT22;10602;48.000;9.654;2022-08-01T05:46:49;19.40;99.90
20885;DHT22;10602;48.000;9.654;2022-08-01T05:49:17;19.60;99.90
20885;DHT22;10602;48.000;9.654;2022-08-01T05:51:45;19.80;99.90
20885;DHT22;10602;48.000;9.654;2022-08-01T05:54:12;20.00;99.90
20885;DHT22;10602;48.000;9.654;2022-08-01T05:56:40;20.20;99.90
20885;DHT22;10602;48.000;9.654;2022-08-01T05:59:07;20.40;99.90
20885;DHT22;10602;48.000;9.654;2022-08-01T06:01:35;20.50;99.90
20885;DHT22;10602;48.000;9.654;2022-08-01T06:04:02;20.70;99.90
20885;DHT22;10602;48.000;9.654;2022-08-01T06:06:30;20.90;99.90
20885;DHT22;10602;48.000;9.654;2022-08-01T06:08:57;21.20;99.90
20885;DHT22;10602;48.000;9.654;2022-08-01T06:11:25;21.40;99.90
20885;DHT22;10602;48.000;9.654;2022-08-01T06:13:52;21.60;99.90
20885;DHT22;10602;48.000;9.654;2022-08-01T06:16:20;21.70;99.90
20885;DHT22;10602;48.000;9.654;2022-08-01T06:18:48;21.80;99.90
20885;DHT22;10602;48.000;9.654;2022-08-01T06:21:15;22.00;99.90
20885;DHT22;10602;48.000;9.654;2022-08-01T06:23:43;22.30;99.90
20885;DHT22;10602;48.000;9.654;2022-08-01T06:26:10;22.50;99.90
20885;DHT22;10602;48.000;9.654;2022-08-01T06:28:38;22.70;99.90
20885;DHT22;10602;48.000;9.654;2022-08-01T06:31:06;23.00;99.90
20885;DHT22;10602;48.000;9.654;2022-08-01T06:33:33;23.00;99.90
20885;DHT22;10602;48.000;9.654;2022-08-01T06:36:01;23.00;99.90
20885;DHT22;10602;48.000;9.654;2022-08-01T06:38:28;23.10;99.90
20885;DHT22;10602;48.000;9.654;2022-08-01T06:40:56;23.40;99.90
20885;DHT22;10602;48.000;9.654;2022-08-01T06:43:23;23.70;99.90
20885;DHT22;10602;48.000;9.654;2022-08-01T06:45:51;23.90;99.90
20885;DHT22;10602;48.000;9.654;2022-08-01T06:48:18;24.20;99.90
20885;DHT22;10602;48.000;9.654;2022-08-01T06:50:46;24.30;99.90
20885;DHT22;10602;48.000;9.654;2022-08-01T06:53:13;24.50;99.00
20885;DHT22;10602;48.000;9.654;2022-08-01T06:55:41;24.70;97.00
20885;DHT22;10602;48.000;9.654;2022-08-01T06:58:08;24.80;94.50
20885;DHT22;10602;48.000;9.654;2022-08-01T07:00:36;25.00;93.10
20885;DHT22;10602;48.000;9.654;2022-08-01T07:03:03;25.10;91.70
20885;DHT22;10602;48.000;9.654;2022-08-01T07:05:31;25.10;90.90
20885;DHT22;10602;48.000;9.654;2022-08-01T07:07:58;25.00;89.10
20885;DHT22;10602;48.000;9.654;2022-08-01T07:10:26;24.60;90.40
20885;DHT22;10602;48.000;9.654;2022-08-01T07:12:53;24.50;90.70
20885;DHT22;10602;48.000;9.654;2022-08-01T07:15:21;24.70;90.60
20885;DHT22;10602;48.000;9.654;2022-08-01T07:17:50;24.90;88.40
20885;DHT22;10602;48.000;9.654;2022-08-01T07:20:19;24.90;89.30
20885;DHT22;10602;48.000;9.654;2022-08-01T07:22:47;25.00;88.10
20885;DHT22;10602;48.000;9.654;2022-08-01T07:25:14;24.90;86.10
20885;DHT22;10602;48.000;9.654;2022-08-01T07:27:42;25.10;85.60
20885;DHT22;10602;48.000;9.654;2022-08-01T07:30:11;25.10;85.10
20885;DHT22;10602;48.000;9.654;2022-08-01T07:32:39;25.10;85.70
20885;DHT22;10602;48.000;9.654;2022-08-01T07:35:07;25.50;87.30
20885;DHT22;10602;48.000;9.654;2022-08-01T07:37:34;26.00;85.80
20885;DHT22;10602;48.000;9.654;2022-08-01T07:40:02;26.30;83.90
20885;DHT22;10602;48.000;9.654;2022-08-01T07:42:31;26.50;82.70
20885;DHT22;10602;48.000;9.654;2022-08-01T07:44:58;26.80;80.00
20885;DHT22;10602;48.000;9.654;2022-08-01T07:47:27;26.60;78.20
20885;DHT22;10602;48.000;9.654;2022-08-01T07:50:01;26.80;77.90
20885;DHT22;10602;48.000;9.654;2022-08-01T07:52:29;26.70;78.10
20885;DHT22;10602;48.000;9.654;2022-08-01T07:54:57;26.50;78.60
20885;DHT22;10602;48.000;9.654;2022-08-01T07:57:25;26.20;79.60
20885;DHT22;10602;48.000;9.654;2022-08-01T07:59:53;26.00;79.50
20885;DHT22;10602;48.000;9.654;2022-08-01T08:02:20;25.90;79.30
20885;DHT22;10602;48.000;9.654;2022-08-01T08:04:47;25.80;79.70
20885;DHT22;10602;48.000;9.654;2022-08-01T08:07:15;26.10;81.20
20885;DHT22;10602;48.000;9.654;2022-08-01T08:09:43;26.80;78.20
20885;DHT22;10602;48.000;9.654;2022-08-01T08:12:10;27.30;76.00
20885;DHT22;10602;48.000;9.654;2022-08-01T08:14:38;27.30;74.60
20885;DHT22;10602;48.000;9.654;2022-08-01T08:17:06;27.60;77.00
20885;DHT22;10602;48.000;9.654;2022-08-01T08:19:33;27.80;75.80
20885;DHT22;10602;48.000;9.654;2022-08-01T08:22:03;28.20;76.20
20885;DHT22;10602;48.000;9.654;2022-08-01T08:24:30;28.30;72.10
20885;DHT22;10602;48.000;9.654;2022-08-01T08:26:59;28.30;72.00
20885;DHT22;10602;48.000;9.654;2022-08-01T08:29:28;28.40;73.20
20885;DHT22;10602;48.000;9.654;2022-08-01T08:31:57;28.70;72.20
20885;DHT22;10602;48.000;9.654;2022-08-01T08:34:26;28.90;73.30
20885;DHT22;10602;48.000;9.654;2022-08-01T08:36:55;28.20;70.40
20885;DHT22;10602;48.000;9.654;2022-08-01T08:39:23;27.70;70.90
20885;DHT22;10602;48.000;9.654;2022-08-01T08:41:50;26.90;72.20
20885;DHT22;10602;48.000;9.654;2022-08-01T08:44:18;26.70;73.70
20885;DHT22;10602;48.000;9.654;2022-08-01T08:46:51;26.70;73.90
20885;DHT22;10602;48.000;9.654;2022-08-01T08:49:22;26.90;74.50
20885;DHT22;10602;48.000;9.654;2022-08-01T08:51:52;27.10;74.10
20885;DHT22;10602;48.000;9.654;2022-08-01T08:54:22;27.10;73.50
20885;DHT22;10602;48.000;9.654;2022-08-01T08:56:52;27.30;73.80
20885;DHT22;10602;48.000;9.654;2022-08-01T08:59:21;28.00;74.40
20885;DHT22;10602;48.000;9.654;2022-08-01T09:01:50;28.90;69.50
20885;DHT22;10602;48.000;9.654;2022-08-01T09:04:18;29.50;68.80
20885;DHT22;10602;48.000;9.654;2022-08-01T09:06:49;30.10;66.30
20885;DHT22;10602;48.000;9.654;2022-08-01T09:09:17;30.30;64.50
20885;DHT22;10602;48.000;9.654;2022-08-01T09:11:45;30.70;62.10
20885;DHT22;10602;48.000;9.654;2022-08-01T09:16:45;31.00;61.70
20885;DHT22;10602;48.000;9.654;2022-08-01T09:19:15;30.70;60.50
20885;DHT22;10602;48.000;9.654;2022-08-01T09:22:01;30.30;61.90
20885;DHT22;10602;48.000;9.654;2022-08-01T09:24:31;30.20;61.90
20885;DHT22;10602;48.000;9.654;2022-08-01T09:26:59;30.10;63.00
20885;DHT22;10602;48.000;9.654;2022-08-01T09:29:30;30.30;61.50
20885;DHT22;10602;48.000;9.654;2022-08-01T09:31:58;30.00;62.00
20885;DHT22;10602;48.000;9.654;2022-08-01T09:34:28;30.20;63.10
20885;DHT22;10602;48.000;9.654;2022-08-01T09:36:59;29.80;61.10
20885;DHT22;10602;48.000;9.654;2022-08-01T09:39:28;30.00;61.90
20885;DHT22;10602;48.000;9.654;2022-08-01T09:41:59;30.40;62.70
20885;DHT22;10602;48.000;9.654;2022-08-01T09:44:43;30.00;62.30
20885;DHT22;10602;48.000;9.654;2022-08-01T09:47:12;30.10;62.10
20885;DHT22;10602;48.000;9.654;2022-08-01T09:49:41;30.60;62.40
20885;DHT22;10602;48.000;9.654;2022-08-01T09:52:17;31.30;60.80
20885;DHT22;10602;48.000;9.654;2022-08-01T09:54:53;31.20;57.30
20885;DHT22;10602;48.000;9.654;2022-08-01T09:57:22;30.60;58.00
20885;DHT22;10602;48.000;9.654;2022-08-01T09:59:51;30.60;58.20
20885;DHT22;10602;48.000;9.654;2022-08-01T10:05:00;31.10;56.40
20885;DHT22;10602;48.000;9.654;2022-08-01T10:07:28;30.80;55.80
20885;DHT22;10602;48.000;9.654;2022-08-01T10:09:56;30.70;57.00
20885;DHT22;10602;48.000;9.654;2022-08-01T10:12:25;31.40;57.50
20885;DHT22;10602;48.000;9.654;2022-08-01T10:14:52;32.30;55.10
20885;DHT22;10602;48.000;9.654;2022-08-01T10:17:24;32.40;53.70
20885;DHT22;10602;48.000;9.654;2022-08-01T10:19:53;32.80;54.00
20885;DHT22;10602;48.000;9.654;2022-08-01T10:22:23;32.10;53.50
20885;DHT22;10602;48.000;9.654;2022-08-01T10:24:53;32.90;52.80
20885;DHT22;10602;48.000;9.654;2022-08-01T10:27:21;32.80;51.70
20885;DHT22;10602;48.000;9.654;2022-08-01T10:29:55;32.70;52.30
20885;DHT22;10602;48.000;9.654;2022-08-01T10:32:21;32.60;51.00
20885;DHT22;10602;48.000;9.654;2022-08-01T10:34:50;32.30;50.40
20885;DHT22;10602;48.000;9.654;2022-08-01T10:37:18;31.60;50.80
20885;DHT22;10602;48.000;9.654;2022-08-01T10:39:45;31.30;50.90
20885;DHT22;10602;48.000;9.654;2022-08-01T10:42:13;31.70;51.20
20885;DHT22;10602;48.000;9.654;2022-08-01T10:44:41;31.50;50.10
20885;DHT22;10602;48.000;9.654;2022-08-01T10:47:18;31.30;50.10
20885;DHT22;10602;48.000;9.654;2022-08-01T10:49:44;31.20;52.70
20885;DHT22;10602;48.000;9.654;2022-08-01T10:52:16;31.20;51.30
20885;DHT22;10602;48.000;9.654;2022-08-01T10:54:45;31.00;52.20
20885;DHT22;10602;48.000;9.654;2022-08-01T10:57:13;31.10;52.30
20885;DHT22;10602;48.000;9.654;2022-08-01T10:59:50;31.40;50.80
20885;DHT22;10602;48.000;9.654;2022-08-01T11:02:29;31.80;50.50
20885;DHT22;10602;48.000;9.654;2022-08-01T11:05:09;32.50;51.70
20885;DHT22;10602;48.000;9.654;2022-08-01T11:07:51;32.80;48.50
20885;DHT22;10602;48.000;9.654;2022-08-01T11:13:01;32.30;49.00
20885;DHT22;10602;48.000;9.654;2022-08-01T11:15:30;32.40;49.00
20885;DHT22;10602;48.000;9.654;2022-08-01T11:18:00;32.50;50.80
20885;DHT22;10602;48.000;9.654;2022-08-01T11:20:30;32.10;48.80
20885;DHT22;10602;48.000;9.654;2022-08-01T11:28:17;33.90;47.60
20885;DHT22;10602;48.000;9.654;2022-08-01T11:38:49;34.40;45.40
20885;DHT22;10602;48.000;9.654;2022-08-01T11:41:22;33.20;43.90
20885;DHT22;10602;48.000;9.654;2022-08-01T11:44:08;32.50;45.20
20885;DHT22;10602;48.000;9.654;2022-08-01T11:46:55;32.10;46.20
20885;DHT22;10602;48.000;9.654;2022-08-01T11:54:54;35.40;43.10
20885;DHT22;10602;48.000;9.654;2022-08-01T11:57:27;35.20;40.80
20885;DHT22;10602;48.000;9.654;2022-08-01T12:00:03;34.10;41.70
20885;DHT22;10602;48.000;9.654;2022-08-01T12:02:31;34.50;40.90
20885;DHT22;10602;48.000;9.654;2022-08-01T12:05:02;34.30;41.80
20885;DHT22;10602;48.000;9.654;2022-08-01T12:07:32;32.80;42.70
20885;DHT22;10602;48.000;9.654;2022-08-01T12:10:11;32.00;44.90
20885;DHT22;10602;48.000;9.654;2022-08-01T12:12:44;32.40;44.80
20885;DHT22;10602;48.000;9.654;2022-08-01T12:15:12;32.60;44.00
20885;DHT22;10602;48.000;9.654;2022-08-01T12:18:01;32.90;43.50
20885;DHT22;10602;48.000;9.654;2022-08-01T12:20:21;32.20;44.40
20885;DHT22;10602;48.000;9.654;2022-08-01T12:22:54;31.50;44.90
20885;DHT22;10602;48.000;9.654;2022-08-01T12:25:22;31.50;45.80
20885;DHT22;10602;48.000;9.654;2022-08-01T12:27:50;31.00;45.40
20885;DHT22;10602;48.000;9.654;2022-08-01T12:30:20;30.40;46.30
20885;DHT22;10602;48.000;9.654;2022-08-01T12:32:52;29.80;46.20
20885;DHT22;10602;48.000;9.654;2022-08-01T12:35:25;29.80;46.90
20885;DHT22;10602;48.000;9.654;2022-08-01T12:37:56;30.00;46.90
20885;DHT22;10602;48.000;9.654;2022-08-01T12:40:29;30.10;46.90
20885;DHT22;10602;48.000;9.654;2022-08-01T12:43:06;29.80;46.20
20885;DHT22;10602;48.000;9.654;2022-08-01T12:45:38;29.20;47.50
20885;DHT22;10602;48.000;9.654;2022-08-01T12:48:10;28.80;49.10
20885;DHT22;10602;48.000;9.654;2022-08-01T12:50:40;28.30;50.90
20885;DHT22;10602;48.000;9.654;2022-08-01T12:53:09;28.20;51.60
20885;DHT22;10602;48.000;9.654;2022-08-01T12:55:54;28.10;52.40
20885;DHT22;10602;48.000;9.654;2022-08-01T12:58:22;27.70;53.00
20885;DHT22;10602;48.000;9.654;2022-08-01T13:01:01;27.50;53.00
20885;DHT22;10602;48.000;9.654;2022-08-01T13:03:20;27.20;53.60
20885;DHT22;10602;48.000;9.654;2022-08-01T13:05:56;27.20;54.00
20885;DHT22;10602;48.000;9.654;2022-08-01T13:08:29;27.20;55.00
20885;DHT22;10602;48.000;9.654;2022-08-01T13:11:02;27.00;56.60
20885;DHT22;10602;48.000;9.654;2022-08-01T13:13:47;27.00;56.70
20885;DHT22;10602;48.000;9.654;2022-08-01T13:16:21;26.90;56.90
20885;DHT22;10602;48.000;9.654;2022-08-01T13:18:51;26.70;57.50
20885;DHT22;10602;48.000;9.654;2022-08-01T13:21:31;26.60;58.20
20885;DHT22;10602;48.000;9.654;2022-08-01T13:24:12;26.70;58.90
20885;DHT22;10602;48.000;9.654;2022-08-01T13:26:58;27.40;58.90
20885;DHT22;10602;48.000;9.654;2022-08-01T13:29:32;28.30;57.00
20885;DHT22;10602;48.000;9.654;2022-08-01T13:32:22;28.70;55.70
20885;DHT22;10602;48.000;9.654;2022-08-01T13:34:32;29.30;53.10
20885;DHT22;10602;48.000;9.654;2022-08-01T13:37:01;29.40;53.30
20885;DHT22;10602;48.000;9.654;2022-08-01T13:39:29;29.40;52.90
20885;DHT22;10602;48.000;9.654;2022-08-01T13:42:12;29.50;50.90
20885;DHT22;10602;48.000;9.654;2022-08-01T13:44:41;29.30;51.30
20885;DHT22;10602;48.000;9.654;2022-08-01T13:47:11;28.80;51.40
20885;DHT22;10602;48.000;9.654;2022-08-01T13:49:38;28.80;52.40
20885;DHT22;10602;48.000;9.654;2022-08-01T13:52:06;29.10;52.10
20885;DHT22;10602;48.000;9.654;2022-08-01T13:54:33;29.40;52.20
20885;DHT22;10602;48.000;9.654;2022-08-01T13:57:01;29.40;52.20
20885;DHT22;10602;48.000;9.654;2022-08-01T13:59:28;29.30;51.20
20885;DHT22;10602;48.000;9.654;2022-08-01T14:01:56;29.10;51.80
20885;DHT22;10602;48.000;9.654;2022-08-01T14:04:23;28.70;51.50
20885;DHT22;10602;48.000;9.654;2022-08-01T14:06:51;28.70;52.80
20885;DHT22;10602;48.000;9.654;2022-08-01T14:09:19;28.80;56.00
20885;DHT22;10602;48.000;9.654;2022-08-01T14:11:48;28.50;58.60
20885;DHT22;10602;48.000;9.654;2022-08-01T14:14:16;28.30;60.10
20885;DHT22;10602;48.000;9.654;2022-08-01T14:16:43;28.20;61.40
20885;DHT22;10602;48.000;9.654;2022-08-01T14:19:14;27.90;62.30
20885;DHT22;10602;48.000;9.654;2022-08-01T14:21:42;27.70;63.90
20885;DHT22;10602;48.000;9.654;2022-08-01T14:24:10;27.40;67.50
20885;DHT22;10602;48.000;9.654;2022-08-01T14:26:37;27.00;71.50
20885;DHT22;10602;48.000;9.654;2022-08-01T14:29:05;26.60;71.90
20885;DHT22;10602;48.000;9.654;2022-08-01T14:31:32;26.50;76.20
20885;DHT22;10602;48.000;9.654;2022-08-01T14:34:00;26.20;75.60
20885;DHT22;10602;48.000;9.654;2022-08-01T14:36:28;25.90;78.40
20885;DHT22;10602;48.000;9.654;2022-08-01T14:38:55;25.60;79.80
20885;DHT22;10602;48.000;9.654;2022-08-01T14:41:23;25.40;80.20
20885;DHT22;10602;48.000;9.654;2022-08-01T14:43:50;25.50;83.30
20885;DHT22;10602;48.000;9.654;2022-08-01T14:46:18;25.90;82.60
20885;DHT22;10602;48.000;9.654;2022-08-01T14:48:45;26.10;81.10
20885;DHT22;10602;48.000;9.654;2022-08-01T14:51:13;26.40;80.80
20885;DHT22;10602;48.000;9.654;2022-08-01T14:53:40;26.70;79.50
20885;DHT22;10602;48.000;9.654;2022-08-01T14:56:09;27.00;78.00
20885;DHT22;10602;48.000;9.654;2022-08-01T14:58:36;27.30;76.80
20885;DHT22;10602;48.000;9.654;2022-08-01T15:01:03;27.40;74.40
20885;DHT22;10602;48.000;9.654;2022-08-01T15:03:32;27.60;74.70
20885;DHT22;10602;48.000;9.654;2022-08-01T15:05:59;27.60;74.70
20885;DHT22;10602;48.000;9.654;2022-08-01T15:08:27;27.50;72.70
20885;DHT22;10602;48.000;9.654;2022-08-01T15:10:56;27.40;74.00
20885;DHT22;10602;48.000;9.654;2022-08-01T15:13:24;27.20;74.70
20885;DHT22;10602;48.000;9.654;2022-08-01T15:15:51;27.10;76.40
20885;DHT22;10602;48.000;9.654;2022-08-01T15:18:19;26.90;77.00
20885;DHT22;10602;48.000;9.654;2022-08-01T15:20:46;26.80;76.60
20885;DHT22;10602;48.000;9.654;2022-08-01T15:23:14;26.70;75.70
20885;DHT22;10602;48.000;9.654;2022-08-01T15:25:41;26.60;76.90
20885;DHT22;10602;48.000;9.654;2022-08-01T15:28:09;26.60;77.00
20885;DHT22;10602;48.000;9.654;2022-08-01T15:30:37;26.40;77.40
20885;DHT22;10602;48.000;9.654;2022-08-01T15:33:05;26.20;78.10
20885;DHT22;10602;48.000;9.654;2022-08-01T15:35:33;26.20;77.60
20885;DHT22;10602;48.000;9.654;2022-08-01T15:38:00;26.00;78.60
20885;DHT22;10602;48.000;9.654;2022-08-01T15:40:28;25.70;79.20
20885;DHT22;10602;48.000;9.654;2022-08-01T15:42:57;25.50;80.60
20885;DHT22;10602;48.000;9.654;2022-08-01T15:45:25;25.40;82.40
20885;DHT22;10602;48.000;9.654;2022-08-01T15:47:53;25.40;83.40
20885;DHT22;10602;48.000;9.654;2022-08-01T15:50:20;25.30;82.50
20885;DHT22;10602;48.000;9.654;2022-08-01T15:52:48;25.30;83.40
20885;DHT22;10602;48.000;9.654;2022-08-01T15:55:15;25.30;84.60
20885;DHT22;10602;48.000;9.654;2022-08-01T15:57:43;25.30;85.90
20885;DHT22;10602;48.000;9.654;2022-08-01T16:00:10;25.20;87.90
20885;DHT22;10602;48.000;9.654;2022-08-01T16:02:38;25.10;87.90
20885;DHT22;10602;48.000;9.654;2022-08-01T16:05:07;25.00;88.30
20885;DHT22;10602;48.000;9.654;2022-08-01T16:07:35;24.90;89.20
20885;DHT22;10602;48.000;9.654;2022-08-01T16:10:04;24.80;89.90
20885;DHT22;10602;48.000;9.654;2022-08-01T16:12:31;24.80;90.60
20885;DHT22;10602;48.000;9.654;2022-08-01T16:14:59;24.80;91.10
20885;DHT22;10602;48.000;9.654;2022-08-01T16:17:27;24.70;91.20
20885;DHT22;10602;48.000;9.654;2022-08-01T16:19:54;24.60;91.50
20885;DHT22;10602;48.000;9.654;2022-08-01T16:22:22;24.60;91.70
20885;DHT22;10602;48.000;9.654;2022-08-01T16:24:49;24.60;91.90